Mayport, Florida
Current Conditions -  °F | °C
As of 4:52 PM on Sunday 28 Dec 2014 (Local Time) from KNRB Reporting Station
Scattered Clouds Scattered Clouds  
Wind Chill: 76°   Ceiling: Unl
Heat Index: 76°   Visibility: 10mi
Dew Point: 65°   Wind: 5mph
Humidity: 69%   Direction: 240°WSW
Pressure: 30.07"   Gusts: NA
Location:  30.4°N, 81.42°W
Report Text: KNRB 282152Z AUTO 24004KT 10SM FEW036 SCT044 24/18 A3007 RMK AO2 SLP181 T02440183 TSNO $
Loading
Personal Weather Stations






























Interactive Weather Map New forecast layout! Learn more

10-Day Weather Forecast

Advertisements
Track Severe Weather on mobile